sensor_id;sensor_type;location;lat;lon;timestamp;pressure;altitude;pressure_sealevel;temperature;humidity
80509;BME280;69838;52.602;13.434;2023-07-20T00:00:06;100592.03;;;14.16;97.78
80509;BME280;69838;52.602;13.434;2023-07-20T00:00:51;100595.69;;;14.15;97.64
80509;BME280;69838;52.602;13.434;2023-07-20T00:01:38;100592.22;;;14.13;97.64
80509;BME280;69838;52.602;13.434;2023-07-20T00:02:24;100589.59;;;14.11;97.52
80509;BME280;69838;52.602;13.434;2023-07-20T00:03:13;100591.44;;;14.11;97.53
80509;BME280;69838;52.602;13.434;2023-07-20T00:04:01;100584.34;;;14.08;97.56
80509;BME280;69838;52.602;13.434;2023-07-20T00:04:46;100588.94;;;14.08;97.79
80509;BME280;69838;52.602;13.434;2023-07-20T00:05:32;100588.06;;;14.07;97.87
80509;BME280;69838;52.602;13.434;2023-07-20T00:06:17;100589.13;;;14.05;98.07
80509;BME280;69838;52.602;13.434;2023-07-20T00:07:03;100586.31;;;14.06;97.75
80509;BME280;69838;52.602;13.434;2023-07-20T00:07:48;100594.53;;;14.05;97.90
80509;BME280;69838;52.602;13.434;2023-07-20T00:08:37;100592.72;;;14.05;98.12
80509;BME280;69838;52.602;13.434;2023-07-20T00:09:22;100593.69;;;14.04;97.94
80509;BME280;69838;52.602;13.434;2023-07-20T00:10:07;100589.34;;;14.02;98.03
80509;BME280;69838;52.602;13.434;2023-07-20T00:10:53;100595.72;;;14.01;97.94
80509;BME280;69838;52.602;13.434;2023-07-20T00:11:39;100591.38;;;13.98;98.04
80509;BME280;69838;52.602;13.434;2023-07-20T00:12:24;100597.69;;;13.99;98.48
80509;BME280;69838;52.602;13.434;2023-07-20T00:13:11;100600.41;;;13.99;98.24
80509;BME280;69838;52.602;13.434;2023-07-20T00:13:56;100594.97;;;13.99;98.06
80509;BME280;69838;52.602;13.434;2023-07-20T00:14:41;100607.53;;;14.00;98.22
80509;BME280;69838;52.602;13.434;2023-07-20T00:15:26;100600.59;;;13.96;98.38
80509;BME280;69838;52.602;13.434;2023-07-20T00:16:12;100599.81;;;13.93;98.27
80509;BME280;69838;52.602;13.434;2023-07-20T00:16:57;100599.06;;;13.91;98.47
80509;BME280;69838;52.602;13.434;2023-07-20T00:17:42;100593.63;;;13.91;98.53
80509;BME280;69838;52.602;13.434;2023-07-20T00:18:29;100602.72;;;13.90;98.62
80509;BME280;69838;52.602;13.434;2023-07-20T00:19:15;100599.25;;;13.88;98.49
80509;BME280;69838;52.602;13.434;2023-07-20T00:20:01;100586.25;;;13.93;98.52
80509;BME280;69838;52.602;13.434;2023-07-20T00:20:47;100591.88;;;13.90;98.46
80509;BME280;69838;52.602;13.434;2023-07-20T00:21:32;100593.63;;;13.91;98.55
80509;BME280;69838;52.602;13.434;2023-07-20T00:22:17;100602.72;;;13.90;98.85
80509;BME280;69838;52.602;13.434;2023-07-20T00:23:03;100601.00;;;13.89;98.67
80509;BME280;69838;52.602;13.434;2023-07-20T00:23:48;100593.81;;;13.88;99.00
80509;BME280;69838;52.602;13.434;2023-07-20T00:24:33;100595.75;;;13.86;98.91
80509;BME280;69838;52.602;13.434;2023-07-20T00:25:19;100603.13;;;13.84;98.55
80509;BME280;69838;52.602;13.434;2023-07-20T00:26:04;100593.31;;;13.82;98.78
80509;BME280;69838;52.602;13.434;2023-07-20T00:26:49;100606.13;;;13.80;98.81
80509;BME280;69838;52.602;13.434;2023-07-20T00:27:34;100599.84;;;13.79;99.13
80509;BME280;69838;52.602;13.434;2023-07-20T00:28:20;100601.59;;;13.80;99.09
80509;BME280;69838;52.602;13.434;2023-07-20T00:29:05;100599.84;;;13.79;98.92
80509;BME280;69838;52.602;13.434;2023-07-20T00:29:51;100603.50;;;13.78;99.09
80509;BME280;69838;52.602;13.434;2023-07-20T00:30:38;100603.31;;;13.81;99.52
80509;BME280;69838;52.602;13.434;2023-07-20T00:31:23;100597.22;;;13.78;99.30
80509;BME280;69838;52.602;13.434;2023-07-20T00:32:08;100596.53;;;13.74;99.03
80509;BME280;69838;52.602;13.434;2023-07-20T00:32:53;100593.06;;;13.72;99.26
80509;BME280;69838;52.602;13.434;2023-07-20T00:33:39;100612.25;;;13.69;99.40
80509;BME280;69838;52.602;13.434;2023-07-20T00:34:24;100598.91;;;13.66;99.38
80509;BME280;69838;52.602;13.434;2023-07-20T00:35:10;100599.94;;;13.63;99.41
80509;BME280;69838;52.602;13.434;2023-07-20T00:35:56;100597.53;;;13.59;99.27
80509;BME280;69838;52.602;13.434;2023-07-20T00:36:41;100606.06;;;13.52;99.50
80509;BME280;69838;52.602;13.434;2023-07-20T00:37:27;100605.09;;;13.53;99.88
80509;BME280;69838;52.602;13.434;2023-07-20T00:38:12;100609.63;;;13.53;99.67
80509;BME280;69838;52.602;13.434;2023-07-20T00:38:57;100603.53;;;13.49;99.66
80509;BME280;69838;52.602;13.434;2023-07-20T00:39:43;100601.78;;;13.48;99.86
80509;BME280;69838;52.602;13.434;2023-07-20T00:40:28;100609.16;;;13.46;99.76
80509;BME280;69838;52.602;13.434;2023-07-20T00:41:13;100607.59;;;13.42;99.62
80509;BME280;69838;52.602;13.434;2023-07-20T00:41:59;100607.03;;;13.37;99.55
80509;BME280;69838;52.602;13.434;2023-07-20T00:42:45;100613.41;;;13.36;99.53
80509;BME280;69838;52.602;13.434;2023-07-20T00:43:30;100610.00;;;13.32;99.87
80509;BME280;69838;52.602;13.434;2023-07-20T00:44:15;100601.16;;;13.29;100.00
80509;BME280;69838;52.602;13.434;2023-07-20T00:45:01;100606.59;;;13.29;99.98
80509;BME280;69838;52.602;13.434;2023-07-20T00:45:46;100604.84;;;13.28;100.00
80509;BME280;69838;52.602;13.434;2023-07-20T00:46:32;100612.09;;;13.27;100.00
80509;BME280;69838;52.602;13.434;2023-07-20T00:47:17;100612.41;;;13.23;100.00
80509;BME280;69838;52.602;13.434;2023-07-20T00:48:04;100609.69;;;13.23;100.00
80509;BME280;69838;52.602;13.434;2023-07-20T00:48:51;100614.31;;;13.21;100.00
80509;BME280;69838;52.602;13.434;2023-07-20T00:49:37;100613.44;;;13.20;100.00
80509;BME280;69838;52.602;13.434;2023-07-20T00:50:24;100607.16;;;13.20;100.00
80509;BME280;69838;52.602;13.434;2023-07-20T00:51:10;100614.91;;;13.26;100.00
80509;BME280;69838;52.602;13.434;2023-07-20T00:51:55;100610.56;;;13.23;100.00
80509;BME280;69838;52.602;13.434;2023-07-20T00:52:41;100607.00;;;13.23;100.00
80509;BME280;69838;52.602;13.434;2023-07-20T00:53:26;100613.44;;;13.20;100.00
80509;BME280;69838;52.602;13.434;2023-07-20T00:54:12;100611.03;;;13.15;100.00
80509;BME280;69838;52.602;13.434;2023-07-20T00:54:57;100610.06;;;13.16;100.00
80509;BME280;69838;52.602;13.434;2023-07-20T00:55:43;100610.66;;;13.22;100.00
80509;BME280;69838;52.602;13.434;2023-07-20T00:56:29;100609.88;;;13.20;100.00
80509;BME280;69838;52.602;13.434;2023-07-20T00:57:15;100608.63;;;13.25;100.00
80509;BME280;69838;52.602;13.434;2023-07-20T00:58:01;100607.00;;;13.23;100.00
80509;BME280;69838;52.602;13.434;2023-07-20T00:58:47;100613.94;;;13.27;100.00
80509;BME280;69838;52.602;13.434;2023-07-20T00:59:32;100601.75;;;13.20;100.00
80509;BME280;69838;52.602;13.434;2023-07-20T01:00:18;100607.34;;;13.16;100.00
80509;BME280;69838;52.602;13.434;2023-07-20T01:01:03;100608.50;;;13.12;100.00
80509;BME280;69838;52.602;13.434;2023-07-20T01:01:49;100613.06;;;13.12;100.00
80509;BME280;69838;52.602;13.434;2023-07-20T01:02:34;100612.78;;;13.16;100.00
80509;BME280;69838;52.602;13.434;2023-07-20T01:03:19;100617.16;;;13.19;100.00
80509;BME280;69838;52.602;13.434;2023-07-20T01:04:05;100603.78;;;13.16;100.00
80509;BME280;69838;52.602;13.434;2023-07-20T01:04:51;100607.94;;;13.22;100.00
80509;BME280;69838;52.602;13.434;2023-07-20T01:05:47;100607.94;;;13.22;100.00
80509;BME280;69838;52.602;13.434;2023-07-20T01:08:24;100604.28;;;13.23;100.00
80509;BME280;69838;52.602;13.434;2023-07-20T01:09:20;100605.22;;;13.22;100.00
80509;BME280;69838;52.602;13.434;2023-07-20T01:11:10;100601.75;;;13.20;100.00
80509;BME280;69838;52.602;13.434;2023-07-20T01:12:41;100604.63;;;13.16;100.00
80509;BME280;69838;52.602;13.434;2023-07-20T01:13:27;100603.00;;;13.14;100.00
80509;BME280;69838;52.602;13.434;2023-07-20T01:14:14;100609.56;;;13.24;100.00
80509;BME280;69838;52.602;13.434;2023-07-20T01:14:59;100612.00;;;13.29;100.00
80509;BME280;69838;52.602;13.434;2023-07-20T01:15:56;100606.22;;;13.35;100.00
80509;BME280;69838;52.602;13.434;2023-07-20T01:16:42;100604.78;;;13.44;100.00
80509;BME280;69838;52.602;13.434;2023-07-20T01:17:27;100609.84;;;13.50;100.00
80509;BME280;69838;52.602;13.434;2023-07-20T01:18:12;100602.47;;;13.52;100.00
80509;BME280;69838;52.602;13.434;2023-07-20T01:18:58;100604.00;;;13.56;100.00
80509;BME280;69838;52.602;13.434;2023-07-20T01:19:43;100605.78;;;13.57;100.00
80509;BME280;69838;52.602;13.434;2023-07-20T01:20:30;100608.19;;;13.62;100.00
80509;BME280;69838;52.602;13.434;2023-07-20T01:21:22;100608.94;;;13.64;99.74
80509;BME280;69838;52.602;13.434;2023-07-20T01:22:10;100618.66;;;13.68;99.93
80509;BME280;69838;52.602;13.434;2023-07-20T01:23:22;100603.16;;;13.70;99.84
80509;BME280;69838;52.602;13.434;2023-07-20T01:25:25;100615.53;;;13.74;99.94
80509;BME280;69838;52.602;13.434;2023-07-20T01:27:17;100606.13;;;13.80;99.28
80509;BME280;69838;52.602;13.434;2023-07-20T01:29:13;100610.28;;;13.85;98.94
80509;BME280;69838;52.602;13.434;2023-07-20T01:30:14;100604.84;;;13.85;99.07
80509;BME280;69838;52.602;13.434;2023-07-20T01:31:17;100604.66;;;13.88;99.19
80509;BME280;69838;52.602;13.434;2023-07-20T01:32:04;100610.66;;;13.93;99.31
80509;BME280;69838;52.602;13.434;2023-07-20T01:32:50;100604.47;;;13.91;98.94
80509;BME280;69838;52.602;13.434;2023-07-20T01:33:38;100611.63;;;13.92;98.63
80509;BME280;69838;52.602;13.434;2023-07-20T01:34:25;100611.63;;;13.92;98.62
80509;BME280;69838;52.602;13.434;2023-07-20T01:35:13;100609.91;;;13.91;98.75
80509;BME280;69838;52.602;13.434;2023-07-20T01:36:01;100604.75;;;13.87;98.52
80509;BME280;69838;52.602;13.434;2023-07-20T01:36:48;100615.53;;;13.88;98.41
80509;BME280;69838;52.602;13.434;2023-07-20T01:37:37;100611.84;;;13.89;98.53
80509;BME280;69838;52.602;13.434;2023-07-20T01:38:23;100615.53;;;13.88;98.56
80509;BME280;69838;52.602;13.434;2023-07-20T01:39:10;100615.63;;;13.87;98.41
80509;BME280;69838;52.602;13.434;2023-07-20T01:39:55;100614.66;;;13.88;98.58
80509;BME280;69838;52.602;13.434;2023-07-20T01:40:42;100609.03;;;13.91;98.58
80509;BME280;69838;52.602;13.434;2023-07-20T01:41:27;100609.03;;;13.91;98.53
80509;BME280;69838;52.602;13.434;2023-07-20T01:42:12;100613.38;;;13.93;98.68
80509;BME280;69838;52.602;13.434;2023-07-20T01:42:57;100614.16;;;13.96;98.43
80509;BME280;69838;52.602;13.434;2023-07-20T01:43:43;100616.00;;;13.95;98.54
80509;BME280;69838;52.602;13.434;2023-07-20T01:44:28;100621.25;;;13.98;98.37
80509;BME280;69838;52.602;13.434;2023-07-20T01:45:14;100615.69;;;14.00;98.53
80509;BME280;69838;52.602;13.434;2023-07-20T01:46:00;100620.16;;;14.01;98.73
80509;BME280;69838;52.602;13.434;2023-07-20T01:46:45;100619.19;;;14.02;98.37
80509;BME280;69838;52.602;13.434;2023-07-20T01:47:30;100616.56;;;14.00;98.18
80509;BME280;69838;52.602;13.434;2023-07-20T01:48:15;100614.72;;;14.01;98.19
80509;BME280;69838;52.602;13.434;2023-07-20T01:49:00;100615.69;;;14.00;98.05
80509;BME280;69838;52.602;13.434;2023-07-20T01:49:46;100607.34;;;14.03;98.24
80509;BME280;69838;52.602;13.434;2023-07-20T01:50:31;100605.63;;;14.02;98.35
80509;BME280;69838;52.602;13.434;2023-07-20T01:51:16;100614.53;;;14.04;97.70
80509;BME280;69838;52.602;13.434;2023-07-20T01:52:03;100612.78;;;14.03;98.34
80509;BME280;69838;52.602;13.434;2023-07-20T01:52:48;100618.03;;;14.06;98.40
80509;BME280;69838;52.602;13.434;2023-07-20T01:53:34;100610.63;;;14.08;98.49
80509;BME280;69838;52.602;13.434;2023-07-20T01:54:19;100605.03;;;14.11;98.31
80509;BME280;69838;52.602;13.434;2023-07-20T01:55:05;100604.25;;;14.09;98.07
80509;BME280;69838;52.602;13.434;2023-07-20T01:55:52;100606.97;;;14.09;98.01
80509;BME280;69838;52.602;13.434;2023-07-20T01:56:38;100606.97;;;14.09;97.83
80509;BME280;69838;52.602;13.434;2023-07-20T01:57:23;100604.16;;;14.10;97.98
80509;BME280;69838;52.602;13.434;2023-07-20T01:58:09;100603.06;;;14.13;98.10
80509;BME280;69838;52.602;13.434;2023-07-20T01:58:54;100599.41;;;14.14;97.77
80509;BME280;69838;52.602;13.434;2023-07-20T01:59:39;100599.19;;;14.17;97.90
80509;BME280;69838;52.602;13.434;2023-07-20T02:00:24;100600.94;;;14.18;97.54
80509;BME280;69838;52.602;13.434;2023-07-20T02:01:10;100607.22;;;14.19;97.48
80509;BME280;69838;52.602;13.434;2023-07-20T02:01:55;100602.88;;;14.16;97.62
80509;BME280;69838;52.602;13.434;2023-07-20T02:02:41;100608.31;;;14.16;97.33
80509;BME280;69838;52.602;13.434;2023-07-20T02:03:26;100604.84;;;14.14;97.64
80509;BME280;69838;52.602;13.434;2023-07-20T02:04:11;100604.03;;;14.12;97.44
80509;BME280;69838;52.602;13.434;2023-07-20T02:04:57;100609.38;;;14.13;97.32
80509;BME280;69838;52.602;13.434;2023-07-20T02:05:43;100610.25;;;14.14;97.42
80509;BME280;69838;52.602;13.434;2023-07-20T02:06:28;100610.25;;;14.14;97.56
80509;BME280;69838;52.602;13.434;2023-07-20T02:07:13;100608.50;;;14.13;97.51
80509;BME280;69838;52.602;13.434;2023-07-20T02:07:59;100619.38;;;14.13;97.62
80509;BME280;69838;52.602;13.434;2023-07-20T02:08:44;100607.53;;;14.14;97.53
80509;BME280;69838;52.602;13.434;2023-07-20T02:09:29;100608.50;;;14.13;97.89
80509;BME280;69838;52.602;13.434;2023-07-20T02:10:15;100613.06;;;14.12;97.66
80509;BME280;69838;52.602;13.434;2023-07-20T02:11:01;100615.69;;;14.14;97.75
80509;BME280;69838;52.602;13.434;2023-07-20T02:11:46;100614.59;;;14.17;97.65
80509;BME280;69838;52.602;13.434;2023-07-20T02:12:31;100620.03;;;14.17;97.87
80509;BME280;69838;52.602;13.434;2023-07-20T02:13:17;100613.16;;;14.11;97.81
80509;BME280;69838;52.602;13.434;2023-07-20T02:14:02;100618.19;;;14.17;97.61
80509;BME280;69838;52.602;13.434;2023-07-20T02:14:47;100610.25;;;14.14;97.54
80509;BME280;69838;52.602;13.434;2023-07-20T02:15:33;100607.84;;;14.09;97.37
80509;BME280;69838;52.602;13.434;2023-07-20T02:16:18;100612.16;;;14.12;97.40
80509;BME280;69838;52.602;13.434;2023-07-20T02:17:03;100610.34;;;14.12;97.38
80509;BME280;69838;52.602;13.434;2023-07-20T02:17:49;100612.16;;;14.12;97.25
80509;BME280;69838;52.602;13.434;2023-07-20T02:18:34;100610.44;;;14.11;97.27
80509;BME280;69838;52.602;13.434;2023-07-20T02:19:21;100616.84;;;14.10;97.23
80509;BME280;69838;52.602;13.434;2023-07-20T02:20:08;100608.91;;;14.07;97.39
80509;BME280;69838;52.602;13.434;2023-07-20T02:20:56;100610.06;;;14.03;97.42
80509;BME280;69838;52.602;13.434;2023-07-20T02:21:41;100616.50;;;14.02;97.58
80509;BME280;69838;52.602;13.434;2023-07-20T02:22:27;100612.78;;;14.03;97.66
80509;BME280;69838;52.602;13.434;2023-07-20T02:23:12;100610.16;;;14.01;97.66
80509;BME280;69838;52.602;13.434;2023-07-20T02:23:57;100617.53;;;13.99;98.12
80509;BME280;69838;52.602;13.434;2023-07-20T02:24:43;100612.44;;;13.94;97.93
80509;BME280;69838;52.602;13.434;2023-07-20T02:25:28;100613.38;;;13.93;98.10
80509;BME280;69838;52.602;13.434;2023-07-20T02:26:13;100623.28;;;13.94;98.26
80509;BME280;69838;52.602;13.434;2023-07-20T02:26:59;100622.69;;;13.89;97.75
80509;BME280;69838;52.602;13.434;2023-07-20T02:27:44;100622.47;;;13.92;97.91
80509;BME280;69838;52.602;13.434;2023-07-20T02:28:29;100625.19;;;13.92;98.04
80509;BME280;69838;52.602;13.434;2023-07-20T02:29:14;100624.44;;;13.90;98.18
80509;BME280;69838;52.602;13.434;2023-07-20T02:30:00;100616.59;;;13.86;98.42
80509;BME280;69838;52.602;13.434;2023-07-20T02:30:45;100617.47;;;13.86;98.24
80509;BME280;69838;52.602;13.434;2023-07-20T02:31:31;100620.28;;;13.85;98.51
80509;BME280;69838;52.602;13.434;2023-07-20T02:32:16;100619.31;;;13.86;98.24
80509;BME280;69838;52.602;13.434;2023-07-20T02:33:01;100622.91;;;13.86;98.51
80509;BME280;69838;52.602;13.434;2023-07-20T02:33:46;100623.66;;;13.88;98.26
80509;BME280;69838;52.602;13.434;2023-07-20T02:34:32;100621.81;;;13.89;98.53
80509;BME280;69838;52.602;13.434;2023-07-20T02:35:17;100616.38;;;13.89;98.50
80509;BME280;69838;52.602;13.434;2023-07-20T02:36:02;100632.00;;;13.85;98.75
80509;BME280;69838;52.602;13.434;2023-07-20T02:36:47;100627.22;;;13.89;98.67
80509;BME280;69838;52.602;13.434;2023-07-20T02:37:33;100624.44;;;13.90;98.56
80509;BME280;69838;52.602;13.434;2023-07-20T02:38:18;100619.91;;;13.91;98.55
80509;BME280;69838;52.602;13.434;2023-07-20T02:39:03;100618.81;;;13.93;98.46
80509;BME280;69838;52.602;13.434;2023-07-20T02:39:49;100613.56;;;13.90;98.93
80509;BME280;69838;52.602;13.434;2023-07-20T02:40:34;100615.31;;;13.91;98.54
80509;BME280;69838;52.602;13.434;2023-07-20T02:41:19;100616.00;;;13.95;98.83
80509;BME280;69838;52.602;13.434;2023-07-20T02:42:05;100614.91;;;13.98;98.67
80509;BME280;69838;52.602;13.434;2023-07-20T02:42:51;100610.75;;;13.92;98.62
80509;BME280;69838;52.602;13.434;2023-07-20T02:43:36;100613.78;;;13.87;98.98
80509;BME280;69838;52.602;13.434;2023-07-20T02:44:21;100608.16;;;13.90;99.01
80509;BME280;69838;52.602;13.434;2023-07-20T02:45:07;100611.19;;;13.86;98.84
80509;BME280;69838;52.602;13.434;2023-07-20T02:45:53;100612.03;;;13.86;98.94
80509;BME280;69838;52.602;13.434;2023-07-20T02:46:38;100608.25;;;13.89;98.82
80509;BME280;69838;52.602;13.434;2023-07-20T02:47:23;100606.41;;;13.89;98.68
80509;BME280;69838;52.602;13.434;2023-07-20T02:48:09;100606.50;;;13.88;98.77
80509;BME280;69838;52.602;13.434;2023-07-20T02:48:54;100612.22;;;13.83;98.92
80509;BME280;69838;52.602;13.434;2023-07-20T02:49:39;100614.16;;;13.81;98.89
80509;BME280;69838;52.602;13.434;2023-07-20T02:50:25;100605.06;;;13.82;99.23
80509;BME280;69838;52.602;13.434;2023-07-20T02:51:10;100618.75;;;13.81;99.17
80509;BME280;69838;52.602;13.434;2023-07-20T02:51:57;100611.56;;;13.80;99.04
80509;BME280;69838;52.602;13.434;2023-07-20T02:52:42;100612.44;;;13.80;99.27
80509;BME280;69838;52.602;13.434;2023-07-20T02:53:27;100608.56;;;13.84;99.13
80509;BME280;69838;52.602;13.434;2023-07-20T02:54:12;100613.00;;;13.85;99.00
80509;BME280;69838;52.602;13.434;2023-07-20T02:54:58;100613.97;;;13.84;98.84
80509;BME280;69838;52.602;13.434;2023-07-20T02:55:43;100616.13;;;13.79;98.73
80509;BME280;69838;52.602;13.434;2023-07-20T02:56:28;100615.34;;;13.77;98.80
80509;BME280;69838;52.602;13.434;2023-07-20T02:57:13;100618.44;;;13.71;98.94
80509;BME280;69838;52.602;13.434;2023-07-20T02:57:59;100633.94;;;13.69;99.06
80509;BME280;69838;52.602;13.434;2023-07-20T02:58:44;100624.06;;;13.68;99.23
80509;BME280;69838;52.602;13.434;2023-07-20T02:59:30;100633.16;;;13.67;99.22
80509;BME280;69838;52.602;13.434;2023-07-20T03:00:16;100634.72;;;13.71;99.33
80509;BME280;69838;52.602;13.434;2023-07-20T03:01:01;100631.22;;;13.69;99.28
80509;BME280;69838;52.602;13.434;2023-07-20T03:01:46;100629.50;;;13.68;99.35
80509;BME280;69838;52.602;13.434;2023-07-20T03:02:32;100633.94;;;13.69;99.38
80509;BME280;69838;52.602;13.434;2023-07-20T03:03:17;100625.81;;;13.69;99.49
80509;BME280;69838;52.602;13.434;2023-07-20T03:04:02;100635.69;;;13.70;99.53
80509;BME280;69838;52.602;13.434;2023-07-20T03:04:49;100633.56;;;13.75;99.58
80509;BME280;69838;52.602;13.434;2023-07-20T03:05:34;100646.91;;;13.78;99.27
80509;BME280;69838;52.602;13.434;2023-07-20T03:06:19;100639.94;;;13.74;99.57
80509;BME280;69838;52.602;13.434;2023-07-20T03:07:05;100636.28;;;13.75;99.32
80509;BME280;69838;52.602;13.434;2023-07-20T03:07:51;100640.81;;;13.74;99.48
80509;BME280;69838;52.602;13.434;2023-07-20T03:08:36;100638.00;;;13.76;99.32
80509;BME280;69838;52.602;13.434;2023-07-20T03:09:21;100637.06;;;13.77;99.38
80509;BME280;69838;52.602;13.434;2023-07-20T03:10:07;100629.97;;;13.74;99.39
80509;BME280;69838;52.602;13.434;2023-07-20T03:10:54;100641.50;;;13.78;99.31
80509;BME280;69838;52.602;13.434;2023-07-20T03:11:39;100634.34;;;13.77;99.35
80509;BME280;69838;52.602;13.434;2023-07-20T03:12:24;100641.31;;;13.81;99.13
80509;BME280;69838;52.602;13.434;2023-07-20T03:13:10;100635.88;;;13.81;99.17
80509;BME280;69838;52.602;13.434;2023-07-20T03:13:55;100629.59;;;13.81;98.94
80509;BME280;69838;52.602;13.434;2023-07-20T03:14:40;100639.56;;;13.80;99.13
80509;BME280;69838;52.602;13.434;2023-07-20T03:15:26;100647.59;;;13.82;99.21
80509;BME280;69838;52.602;13.434;2023-07-20T03:16:15;100640.25;;;13.84;99.25
80509;BME280;69838;52.602;13.434;2023-07-20T03:17:02;100635.88;;;13.81;99.04
80509;BME280;69838;52.602;13.434;2023-07-20T03:17:48;100633.94;;;13.83;99.22
80509;BME280;69838;52.602;13.434;2023-07-20T03:18:33;100635.00;;;13.81;99.45
80509;BME280;69838;52.602;13.434;2023-07-20T03:19:18;100641.13;;;13.84;99.25
80509;BME280;69838;52.602;13.434;2023-07-20T03:20:04;100638.50;;;13.83;99.13
80509;BME280;69838;52.602;13.434;2023-07-20T03:20:53;100641.97;;;13.85;99.03
80509;BME280;69838;52.602;13.434;2023-07-20T03:21:39;100641.97;;;13.85;99.17
80509;BME280;69838;52.602;13.434;2023-07-20T03:22:26;100649.44;;;13.81;99.27
80509;BME280;69838;52.602;13.434;2023-07-20T03:23:11;100645.00;;;13.80;99.27
80509;BME280;69838;52.602;13.434;2023-07-20T03:23:57;100644.09;;;13.80;99.49
80509;BME280;69838;52.602;13.434;2023-07-20T03:24:42;100650.22;;;13.83;99.65
80509;BME280;69838;52.602;13.434;2023-07-20T03:25:27;100645.47;;;13.87;99.48
80509;BME280;69838;52.602;13.434;2023-07-20T03:26:13;100645.69;;;13.84;99.24
80509;BME280;69838;52.602;13.434;2023-07-20T03:26:58;100649.25;;;13.84;99.16
80509;BME280;69838;52.602;13.434;2023-07-20T03:27:43;100650.22;;;13.83;99.52
80509;BME280;69838;52.602;13.434;2023-07-20T03:28:29;100643.25;;;13.79;99.61
80509;BME280;69838;52.602;13.434;2023-07-20T03:29:14;100648.69;;;13.79;99.56
80509;BME280;69838;52.602;13.434;2023-07-20T03:30:01;100648.69;;;13.79;99.64
80509;BME280;69838;52.602;13.434;2023-07-20T03:30:46;100646.91;;;13.78;99.57
80509;BME280;69838;52.602;13.434;2023-07-20T03:31:37;100637.81;;;13.79;99.60
80509;BME280;69838;52.602;13.434;2023-07-20T03:32:22;100644.00;;;13.81;99.45
80509;BME280;69838;52.602;13.434;2023-07-20T03:33:07;100647.59;;;13.82;99.63
80509;BME280;69838;52.602;13.434;2023-07-20T03:33:53;100641.13;;;13.84;99.48
80509;BME280;69838;52.602;13.434;2023-07-20T03:34:38;100649.25;;;13.84;99.50
80509;BME280;69838;52.602;13.434;2023-07-20T03:35:23;100654.59;;;13.86;99.41
80509;BME280;69838;52.602;13.434;2023-07-20T03:36:09;100655.44;;;13.86;99.09
80509;BME280;69838;52.602;13.434;2023-07-20T03:36:55;100651.09;;;13.84;99.31
80509;BME280;69838;52.602;13.434;2023-07-20T03:37:40;100650.88;;;13.87;99.49
80509;BME280;69838;52.602;13.434;2023-07-20T03:38:26;100653.69;;;13.85;99.28
80509;BME280;69838;52.602;13.434;2023-07-20T03:39:12;100655.63;;;13.83;99.33
80509;BME280;69838;52.602;13.434;2023-07-20T03:39:57;100648.75;;;13.78;99.14
80509;BME280;69838;52.602;13.434;2023-07-20T03:40:53;100653.91;;;13.82;99.52
80509;BME280;69838;52.602;13.434;2023-07-20T03:41:38;100649.44;;;13.81;99.42
80509;BME280;69838;52.602;13.434;2023-07-20T03:42:24;100658.34;;;13.83;99.68
80509;BME280;69838;52.602;13.434;2023-07-20T03:43:09;100660.28;;;13.81;99.45
80509;BME280;69838;52.602;13.434;2023-07-20T03:43:54;100655.63;;;13.83;99.64
80509;BME280;69838;52.602;13.434;2023-07-20T03:44:39;100660.28;;;13.81;99.59
80509;BME280;69838;52.602;13.434;2023-07-20T03:45:25;100655.84;;;13.80;99.53
80509;BME280;69838;52.602;13.434;2023-07-20T03:46:10;100655.63;;;13.83;99.58
80509;BME280;69838;52.602;13.434;2023-07-20T03:46:55;100660.38;;;13.80;99.44
80509;BME280;69838;52.602;13.434;2023-07-20T03:47:40;100648.69;;;13.79;99.40
80509;BME280;69838;52.602;13.434;2023-07-20T03:48:26;100648.50;;;13.82;99.31
80509;BME280;69838;52.602;13.434;2023-07-20T03:49:11;100655.63;;;13.83;99.30
80509;BME280;69838;52.602;13.434;2023-07-20T03:49:56;100665.34;;;13.87;99.29
80509;BME280;69838;52.602;13.434;2023-07-20T03:50:41;100660.88;;;13.86;99.25
80509;BME280;69838;52.602;13.434;2023-07-20T03:51:27;100657.09;;;13.89;99.12
80509;BME280;69838;52.602;13.434;2023-07-20T03:52:12;100660.38;;;13.94;99.12
80509;BME280;69838;52.602;13.434;2023-07-20T03:52:57;100649.84;;;13.89;98.87
80509;BME280;69838;52.602;13.434;2023-07-20T03:53:42;100651.78;;;13.87;98.91
80509;BME280;69838;52.602;13.434;2023-07-20T03:54:28;100655.25;;;13.89;99.35
80509;BME280;69838;52.602;13.434;2023-07-20T03:55:13;100652.56;;;13.89;98.95
80509;BME280;69838;52.602;13.434;2023-07-20T03:55:58;100645.38;;;13.88;98.97
80509;BME280;69838;52.602;13.434;2023-07-20T03:56:43;100654.28;;;13.90;98.95
80509;BME280;69838;52.602;13.434;2023-07-20T03:57:28;100658.56;;;13.94;98.64
80509;BME280;69838;52.602;13.434;2023-07-20T03:58:14;100644.69;;;13.99;98.60
80509;BME280;69838;52.602;13.434;2023-07-20T03:58:59;100649.44;;;13.96;98.13
80509;BME280;69838;52.602;13.434;2023-07-20T03:59:45;100650.97;;;14.00;97.81
80509;BME280;69838;52.602;13.434;2023-07-20T04:00:31;100654.47;;;14.02;98.02
80509;BME280;69838;52.602;13.434;2023-07-20T04:01:16;100663.41;;;14.04;97.82
80509;BME280;69838;52.602;13.434;2023-07-20T04:02:04;100662.13;;;14.09;98.09
80509;BME280;69838;52.602;13.434;2023-07-20T04:02:50;100657.38;;;14.13;97.83
80509;BME280;69838;52.602;13.434;2023-07-20T04:03:35;100659.50;;;14.08;97.38